Lyman, Wyoming
Current Conditions -  °F | °C
As of 2:35 PM on Wednesday 17 Dec 2014 (Local Time) from KFBR Reporting Station
Scattered Clouds Scattered Clouds  
Wind Chill: 38°   Ceiling: Unl
Heat Index: 38°   Visibility: 10mi
Dew Point: 21°   Wind: 3mph
Humidity: 50%   Direction: 340°NNW
Pressure: 29.96"   Gusts: NA
Location:  41.33°N, 110.29°W
Report Text: KFBR 172135Z AUTO 34003KT 10SM SCT040 04/M06 A2996 RMK AO2 T00351061
Loading
Personal Weather Stations






























Interactive Weather Map New forecast layout! Learn more

10-Day Weather Forecast

Advertisements
Track Severe Weather on mobile